Hauptseite
METAR-TAF:

METAR-TAF

Flughäfen :

Kuwait-Stadt, Kuwait

Flughafen Kuwait

Breite: 29-13N, Länge: 047-59E, Höhe: 55 m

Beobachtung

Neuester Wetterbericht von vor 51 Minuten, um 15:00 UTC
Wind 9 kt aus Nord/Nordwest
Temperatur 47°C
Luftfeuchtigkeit 8%
Luftdruck 997 hPa
Sichtweite 10 km oder mehr
keine Wolken unter 1500 m und keine Kumulonimbus oder Gewitterwolken

METAR: OKBK 271500Z 34009KT CAVOK 47/05 Q0997 NOSIG

Zeit: 18:51 (15:51 UTC)

Prognose

Neuester Wetterbericht von vor 5 Stunden und 6 Minuten, um 10:45 UTC
Gültige Prognose vom 27 um 12 UTC bis 28 um 18 UTC
Wind 12 kt aus Nord/Nordwest
Sichtweite 10 km oder mehr
keine Wolken unter 1500 m und keine Kumulonimbus oder Gewitterwolken
Zeitweise
vom 27 um 15 UTC bis 27 um 24 UTC
Wind 3 kt aus unterschiedlichen Richtungen

TAF: OKBK 271045Z 2712/2818 34012KT CAVOK TEMPO 2715/2724 VRB03KT

Wetterbeobachtungen und Prognosen von mehr als 4000 Flughäfen (METAR und TAF Bericht).

Die verfügbaren Stationen werden durch gelbe und rote Markierungen auf der Karte dargestellt.

Führen Sie die Maus auf sie, um den Namen der Station zu sehen.

Darauf klicken, um die Beobachtung von Wetterbeobachtungen und Prognosen zu sehen.

Um die Karte zu ändern : klicken Sie auf den grünen Tasten mit einem schwarzen Kreuz Zum Vergrößern, auf den grünen Button mit einem Gedankenstrich zu verkleinern, oder auf die grünen Pfeile für benachbarte Karten.


METAR-TAF: